sensor_id;sensor_type;location;lat;lon;timestamp;noise_LAeq;noise_LA_min;noise_LA_max;noise_LA01;noise_LA95
45964;Laerm;31671;48.092;11.842;2023-03-01T00:01:13;32.05;28.32;52.89;;
45964;Laerm;31671;48.092;11.842;2023-03-01T00:03:39;29.57;28.36;33.34;;
45964;Laerm;31671;48.092;11.842;2023-03-01T00:06:05;29.60;28.23;30.78;;
45964;Laerm;31671;48.092;11.842;2023-03-01T00:08:30;29.60;28.29;37.29;;
45964;Laerm;31671;48.092;11.842;2023-03-01T00:11:03;32.81;28.49;53.37;;
45964;Laerm;31671;48.092;11.842;2023-03-01T00:13:29;30.05;28.54;43.42;;
45964;Laerm;31671;48.092;11.842;2023-03-01T00:15:55;29.76;28.26;41.49;;
45964;Laerm;31671;48.092;11.842;2023-03-01T00:18:20;29.92;28.42;44.20;;
45964;Laerm;31671;48.092;11.842;2023-03-01T00:20:49;29.78;28.28;38.66;;
45964;Laerm;31671;48.092;11.842;2023-03-01T00:23:15;33.68;28.43;50.24;;
45964;Laerm;31671;48.092;11.842;2023-03-01T00:25:41;29.67;28.16;40.40;;
45964;Laerm;31671;48.092;11.842;2023-03-01T00:28:07;29.70;28.25;37.94;;
45964;Laerm;31671;48.092;11.842;2023-03-01T00:30:33;41.59;28.40;62.74;;
45964;Laerm;31671;48.092;11.842;2023-03-01T00:32:58;30.05;28.09;42.96;;
45964;Laerm;31671;48.092;11.842;2023-03-01T00:35:24;29.86;28.33;41.15;;
45964;Laerm;31671;48.092;11.842;2023-03-01T00:37:50;29.68;28.45;35.26;;
45964;Laerm;31671;48.092;11.842;2023-03-01T00:40:15;29.59;28.37;32.81;;
45964;Laerm;31671;48.092;11.842;2023-03-01T00:42:41;29.90;28.51;43.23;;
45964;Laerm;31671;48.092;11.842;2023-03-01T00:45:07;29.67;28.49;34.84;;
45964;Laerm;31671;48.092;11.842;2023-03-01T00:47:32;30.29;28.00;45.18;;
45964;Laerm;31671;48.092;11.842;2023-03-01T00:49:58;29.70;28.45;31.25;;
45964;Laerm;31671;48.092;11.842;2023-03-01T00:52:24;33.31;28.21;50.85;;
45964;Laerm;31671;48.092;11.842;2023-03-01T00:54:51;29.68;28.31;30.97;;
45964;Laerm;31671;48.092;11.842;2023-03-01T00:57:17;30.40;28.38;42.82;;
45964;Laerm;31671;48.092;11.842;2023-03-01T00:59:43;29.74;28.25;39.30;;
45964;Laerm;31671;48.092;11.842;2023-03-01T01:02:09;29.70;28.32;39.50;;
45964;Laerm;31671;48.092;11.842;2023-03-01T01:04:34;29.58;28.40;30.72;;
45964;Laerm;31671;48.092;11.842;2023-03-01T01:07:00;31.81;28.20;50.77;;
45964;Laerm;31671;48.092;11.842;2023-03-01T01:09:26;29.81;28.20;38.36;;
45964;Laerm;31671;48.092;11.842;2023-03-01T01:11:52;31.93;28.14;53.18;;
45964;Laerm;31671;48.092;11.842;2023-03-01T01:14:18;33.13;28.20;49.59;;
45964;Laerm;31671;48.092;11.842;2023-03-01T01:16:44;29.54;28.26;33.42;;
45964;Laerm;31671;48.092;11.842;2023-03-01T01:19:10;29.68;28.24;37.94;;
45964;Laerm;31671;48.092;11.842;2023-03-01T01:21:36;31.56;28.41;46.42;;
45964;Laerm;31671;48.092;11.842;2023-03-01T01:24:03;29.84;28.14;41.58;;
45964;Laerm;31671;48.092;11.842;2023-03-01T01:26:29;29.88;28.47;41.25;;
45964;Laerm;31671;48.092;11.842;2023-03-01T01:28:55;29.71;28.33;38.24;;
45964;Laerm;31671;48.092;11.842;2023-03-01T01:31:22;30.03;28.12;42.69;;
45964;Laerm;31671;48.092;11.842;2023-03-01T01:33:48;36.08;28.42;58.34;;
45964;Laerm;31671;48.092;11.842;2023-03-01T01:36:13;29.63;28.11;34.98;;
45964;Laerm;31671;48.092;11.842;2023-03-01T01:38:39;29.77;28.50;37.68;;
45964;Laerm;31671;48.092;11.842;2023-03-01T01:41:05;29.63;28.43;31.34;;
45964;Laerm;31671;48.092;11.842;2023-03-01T01:43:34;29.60;28.35;30.84;;
45964;Laerm;31671;48.092;11.842;2023-03-01T01:46:01;29.67;28.35;40.55;;
45964;Laerm;31671;48.092;11.842;2023-03-01T01:48:41;29.82;28.18;40.29;;
45964;Laerm;31671;48.092;11.842;2023-03-01T01:51:09;29.88;28.48;41.79;;
45964;Laerm;31671;48.092;11.842;2023-03-01T01:53:36;29.56;28.36;32.21;;
45964;Laerm;31671;48.092;11.842;2023-03-01T01:56:02;29.60;28.24;30.86;;
45964;Laerm;31671;48.092;11.842;2023-03-01T01:58:29;32.68;28.30;53.91;;
45964;Laerm;31671;48.092;11.842;2023-03-01T02:00:55;29.68;28.21;40.14;;
45964;Laerm;31671;48.092;11.842;2023-03-01T02:03:26;29.69;28.37;38.08;;
45964;Laerm;31671;48.092;11.842;2023-03-01T02:06:06;29.60;28.21;30.81;;
45964;Laerm;31671;48.092;11.842;2023-03-01T02:08:37;30.91;28.06;46.81;;
45964;Laerm;31671;48.092;11.842;2023-03-01T02:11:04;33.64;28.18;52.45;;
45964;Laerm;31671;48.092;11.842;2023-03-01T02:13:31;30.06;28.20;43.11;;
45964;Laerm;31671;48.092;11.842;2023-03-01T02:15:58;29.66;28.27;40.30;;
45964;Laerm;31671;48.092;11.842;2023-03-01T02:18:23;29.90;28.46;39.93;;
45964;Laerm;31671;48.092;11.842;2023-03-01T02:20:59;41.17;28.53;60.97;;
45964;Laerm;31671;48.092;11.842;2023-03-01T02:23:28;29.85;28.23;40.51;;
45964;Laerm;31671;48.092;11.842;2023-03-01T02:25:56;33.45;28.55;51.54;;
45964;Laerm;31671;48.092;11.842;2023-03-01T02:28:25;34.26;28.37;54.38;;
45964;Laerm;31671;48.092;11.842;2023-03-01T02:30:51;34.86;28.32;53.75;;
45964;Laerm;31671;48.092;11.842;2023-03-01T02:33:18;30.01;28.07;43.99;;
45964;Laerm;31671;48.092;11.842;2023-03-01T02:35:44;34.34;28.37;54.92;;
45964;Laerm;31671;48.092;11.842;2023-03-01T02:38:10;29.67;28.40;38.44;;
45964;Laerm;31671;48.092;11.842;2023-03-01T02:40:35;29.72;28.34;37.05;;
45964;Laerm;31671;48.092;11.842;2023-03-01T02:43:03;29.60;27.79;31.62;;
45964;Laerm;31671;48.092;11.842;2023-03-01T02:45:30;29.66;28.36;36.52;;
45964;Laerm;31671;48.092;11.842;2023-03-01T02:47:56;29.92;28.14;41.96;;
45964;Laerm;31671;48.092;11.842;2023-03-01T02:55:21;31.78;28.25;53.14;;
45964;Laerm;31671;48.092;11.842;2023-03-01T02:57:46;30.66;28.44;48.06;;
45964;Laerm;31671;48.092;11.842;2023-03-01T03:00:15;32.04;28.17;49.60;;
45964;Laerm;31671;48.092;11.842;2023-03-01T03:02:42;29.63;28.41;37.11;;
45964;Laerm;31671;48.092;11.842;2023-03-01T03:05:20;29.62;28.40;39.43;;
45964;Laerm;31671;48.092;11.842;2023-03-01T03:07:48;30.33;28.46;48.19;;
45964;Laerm;31671;48.092;11.842;2023-03-01T03:10:18;29.66;28.25;38.70;;
45964;Laerm;31671;48.092;11.842;2023-03-01T03:12:48;41.43;28.18;61.95;;
45964;Laerm;31671;48.092;11.842;2023-03-01T03:15:14;35.28;28.32;53.27;;
45964;Laerm;31671;48.092;11.842;2023-03-01T03:17:41;30.48;27.86;52.49;;
45964;Laerm;31671;48.092;11.842;2023-03-01T03:20:08;32.05;28.25;54.05;;
45964;Laerm;31671;48.092;11.842;2023-03-01T03:22:34;34.93;28.32;58.18;;
45964;Laerm;31671;48.092;11.842;2023-03-01T03:25:00;30.63;28.10;50.54;;
45964;Laerm;31671;48.092;11.842;2023-03-01T03:27:25;30.66;28.15;46.91;;
45964;Laerm;31671;48.092;11.842;2023-03-01T03:29:51;29.77;28.30;39.41;;
45964;Laerm;31671;48.092;11.842;2023-03-01T03:32:17;29.88;28.34;43.57;;
45964;Laerm;31671;48.092;11.842;2023-03-01T03:34:43;30.53;28.23;45.48;;
45964;Laerm;31671;48.092;11.842;2023-03-01T03:37:08;34.28;28.52;53.93;;
45964;Laerm;31671;48.092;11.842;2023-03-01T03:39:34;41.79;28.50;61.42;;
45964;Laerm;31671;48.092;11.842;2023-03-01T03:42:00;30.14;28.43;47.74;;
45964;Laerm;31671;48.092;11.842;2023-03-01T03:44:26;29.63;28.36;31.01;;
45964;Laerm;31671;48.092;11.842;2023-03-01T03:46:52;31.61;28.23;47.70;;
45964;Laerm;31671;48.092;11.842;2023-03-01T03:49:17;29.63;28.36;31.60;;
45964;Laerm;31671;48.092;11.842;2023-03-01T03:51:44;31.54;28.21;51.44;;
45964;Laerm;31671;48.092;11.842;2023-03-01T03:54:10;30.02;28.32;41.24;;
45964;Laerm;31671;48.092;11.842;2023-03-01T03:56:36;29.67;27.90;33.75;;
45964;Laerm;31671;48.092;11.842;2023-03-01T03:59:02;30.06;28.33;48.79;;
45964;Laerm;31671;48.092;11.842;2023-03-01T04:01:27;29.97;28.43;45.47;;
45964;Laerm;31671;48.092;11.842;2023-03-01T04:03:53;29.61;28.05;31.97;;
45964;Laerm;31671;48.092;11.842;2023-03-01T04:06:19;30.12;28.29;44.71;;
45964;Laerm;31671;48.092;11.842;2023-03-01T04:08:44;38.25;28.52;58.65;;
45964;Laerm;31671;48.092;11.842;2023-03-01T04:11:10;33.15;28.42;57.65;;
45964;Laerm;31671;48.092;11.842;2023-03-01T04:13:36;29.87;28.29;43.71;;
45964;Laerm;31671;48.092;11.842;2023-03-01T04:16:02;29.73;28.44;37.08;;
45964;Laerm;31671;48.092;11.842;2023-03-01T04:18:28;30.11;28.42;44.83;;
45964;Laerm;31671;48.092;11.842;2023-03-01T04:20:54;29.63;28.33;31.77;;
45964;Laerm;31671;48.092;11.842;2023-03-01T04:23:20;37.33;28.45;56.99;;
45964;Laerm;31671;48.092;11.842;2023-03-01T04:25:47;29.84;28.38;43.62;;
45964;Laerm;31671;48.092;11.842;2023-03-01T04:28:13;29.66;28.23;38.88;;
45964;Laerm;31671;48.092;11.842;2023-03-01T04:30:38;29.83;28.28;44.78;;
45964;Laerm;31671;48.092;11.842;2023-03-01T04:33:05;29.66;28.43;31.05;;
45964;Laerm;31671;48.092;11.842;2023-03-01T04:35:31;29.67;28.32;31.27;;
45964;Laerm;31671;48.092;11.842;2023-03-01T04:37:57;30.20;28.18;46.33;;
45964;Laerm;31671;48.092;11.842;2023-03-01T04:40:23;29.78;28.35;40.39;;
45964;Laerm;31671;48.092;11.842;2023-03-01T04:42:48;30.32;28.27;42.94;;
45964;Laerm;31671;48.092;11.842;2023-03-01T04:45:14;32.31;28.50;51.86;;
45964;Laerm;31671;48.092;11.842;2023-03-01T04:47:40;33.19;28.60;50.38;;
45964;Laerm;31671;48.092;11.842;2023-03-01T04:50:06;30.24;28.33;45.46;;
45964;Laerm;31671;48.092;11.842;2023-03-01T04:52:33;30.01;28.20;41.91;;
45964;Laerm;31671;48.092;11.842;2023-03-01T04:54:58;29.65;28.19;31.83;;
45964;Laerm;31671;48.092;11.842;2023-03-01T04:57:24;29.72;28.28;39.43;;
45964;Laerm;31671;48.092;11.842;2023-03-01T04:59:50;31.31;28.40;50.72;;
45964;Laerm;31671;48.092;11.842;2023-03-01T05:02:16;32.81;28.52;53.67;;
45964;Laerm;31671;48.092;11.842;2023-03-01T05:04:42;29.85;28.31;44.84;;
45964;Laerm;31671;48.092;11.842;2023-03-01T05:07:08;31.65;28.45;52.85;;
45964;Laerm;31671;48.092;11.842;2023-03-01T05:09:34;32.37;28.17;53.37;;
45964;Laerm;31671;48.092;11.842;2023-03-01T05:12:00;30.32;28.55;47.88;;
45964;Laerm;31671;48.092;11.842;2023-03-01T05:14:26;33.49;28.40;54.23;;
45964;Laerm;31671;48.092;11.842;2023-03-01T05:16:52;29.86;28.20;45.79;;
45964;Laerm;31671;48.092;11.842;2023-03-01T05:19:19;39.29;28.26;63.94;;
45964;Laerm;31671;48.092;11.842;2023-03-01T05:21:45;34.35;28.29;53.80;;
45964;Laerm;31671;48.092;11.842;2023-03-01T05:24:11;32.84;28.17;53.00;;
45964;Laerm;31671;48.092;11.842;2023-03-01T05:26:36;39.88;28.17;59.55;;
45964;Laerm;31671;48.092;11.842;2023-03-01T05:29:02;35.50;28.56;54.44;;
45964;Laerm;31671;48.092;11.842;2023-03-01T05:31:28;32.41;28.25;52.14;;
45964;Laerm;31671;48.092;11.842;2023-03-01T05:33:53;30.52;28.22;46.66;;
45964;Laerm;31671;48.092;11.842;2023-03-01T05:36:20;32.60;28.52;50.91;;
45964;Laerm;31671;48.092;11.842;2023-03-01T05:38:46;29.69;28.33;32.61;;
45964;Laerm;31671;48.092;11.842;2023-03-01T05:41:15;30.44;28.41;48.54;;
45964;Laerm;31671;48.092;11.842;2023-03-01T05:43:40;31.99;28.45;50.60;;
45964;Laerm;31671;48.092;11.842;2023-03-01T05:46:06;30.39;28.54;43.92;;
45964;Laerm;31671;48.092;11.842;2023-03-01T05:48:32;31.53;28.32;55.18;;
45964;Laerm;31671;48.092;11.842;2023-03-01T05:50:59;38.41;28.28;57.18;;
45964;Laerm;31671;48.092;11.842;2023-03-01T05:53:25;29.87;28.27;40.27;;
45964;Laerm;31671;48.092;11.842;2023-03-01T05:55:51;35.62;28.32;57.25;;
45964;Laerm;31671;48.092;11.842;2023-03-01T05:58:19;38.40;28.51;56.20;;
45964;Laerm;31671;48.092;11.842;2023-03-01T06:00:45;29.87;28.34;47.97;;
45964;Laerm;31671;48.092;11.842;2023-03-01T06:03:12;31.69;28.36;49.68;;
45964;Laerm;31671;48.092;11.842;2023-03-01T06:05:38;31.35;28.42;50.20;;
45964;Laerm;31671;48.092;11.842;2023-03-01T06:08:04;42.42;28.52;63.01;;
45964;Laerm;31671;48.092;11.842;2023-03-01T06:10:30;43.02;28.61;65.27;;
45964;Laerm;31671;48.092;11.842;2023-03-01T06:12:56;39.22;28.52;59.27;;
45964;Laerm;31671;48.092;11.842;2023-03-01T06:15:24;32.39;28.55;49.90;;
45964;Laerm;31671;48.092;11.842;2023-03-01T06:17:50;34.94;28.41;51.16;;
45964;Laerm;31671;48.092;11.842;2023-03-01T06:20:19;34.18;28.30;55.37;;
45964;Laerm;31671;48.092;11.842;2023-03-01T06:22:47;40.10;28.45;64.14;;
45964;Laerm;31671;48.092;11.842;2023-03-01T06:25:14;30.26;28.29;50.12;;
45964;Laerm;31671;48.092;11.842;2023-03-01T06:27:40;30.70;28.20;46.21;;
45964;Laerm;31671;48.092;11.842;2023-03-01T06:30:07;33.68;28.52;52.94;;
45964;Laerm;31671;48.092;11.842;2023-03-01T06:32:33;31.22;28.41;49.31;;
45964;Laerm;31671;48.092;11.842;2023-03-01T06:34:59;39.51;28.33;57.99;;
45964;Laerm;31671;48.092;11.842;2023-03-01T06:37:25;32.48;28.19;55.01;;
45964;Laerm;31671;48.092;11.842;2023-03-01T06:39:50;29.96;28.36;38.47;;
45964;Laerm;31671;48.092;11.842;2023-03-01T06:42:17;30.32;28.25;46.16;;
45964;Laerm;31671;48.092;11.842;2023-03-01T06:44:43;35.41;28.62;55.27;;
45964;Laerm;31671;48.092;11.842;2023-03-01T06:47:09;42.06;28.60;60.83;;
45964;Laerm;31671;48.092;11.842;2023-03-01T06:49:35;30.11;28.31;42.84;;
45964;Laerm;31671;48.092;11.842;2023-03-01T06:52:00;39.59;28.49;60.43;;
45964;Laerm;31671;48.092;11.842;2023-03-01T06:54:26;31.18;28.59;48.42;;
45964;Laerm;31671;48.092;11.842;2023-03-01T06:56:52;32.95;28.72;50.53;;
45964;Laerm;31671;48.092;11.842;2023-03-01T06:59:18;30.62;28.58;45.31;;
45964;Laerm;31671;48.092;11.842;2023-03-01T07:01:43;37.27;28.55;56.28;;
45964;Laerm;31671;48.092;11.842;2023-03-01T07:04:10;31.59;28.50;52.21;;
45964;Laerm;31671;48.092;11.842;2023-03-01T07:06:35;44.65;28.49;65.75;;
45964;Laerm;31671;48.092;11.842;2023-03-01T07:09:01;41.63;28.68;62.90;;
45964;Laerm;31671;48.092;11.842;2023-03-01T07:11:27;34.34;28.29;55.99;;
45964;Laerm;31671;48.092;11.842;2023-03-01T07:13:52;33.47;28.39;53.43;;
45964;Laerm;31671;48.092;11.842;2023-03-01T07:16:18;33.53;28.53;55.19;;
45964;Laerm;31671;48.092;11.842;2023-03-01T07:18:44;39.67;28.65;60.77;;
45964;Laerm;31671;48.092;11.842;2023-03-01T07:21:11;33.88;28.41;54.46;;
45964;Laerm;31671;48.092;11.842;2023-03-01T07:23:37;40.71;28.48;59.13;;
45964;Laerm;31671;48.092;11.842;2023-03-01T07:26:03;34.03;28.51;56.65;;
45964;Laerm;31671;48.092;11.842;2023-03-01T07:28:29;41.52;28.60;61.03;;
45964;Laerm;31671;48.092;11.842;2023-03-01T07:30:55;36.75;28.61;58.37;;
45964;Laerm;31671;48.092;11.842;2023-03-01T07:33:20;41.68;28.40;60.53;;
45964;Laerm;31671;48.092;11.842;2023-03-01T07:35:46;44.46;28.43;61.25;;
45964;Laerm;31671;48.092;11.842;2023-03-01T07:38:12;42.33;28.50;59.58;;
45964;Laerm;31671;48.092;11.842;2023-03-01T07:40:37;47.95;28.72;67.06;;
45964;Laerm;31671;48.092;11.842;2023-03-01T07:43:03;36.69;28.63;60.10;;
45964;Laerm;31671;48.092;11.842;2023-03-01T07:45:29;34.37;28.49;55.43;;
45964;Laerm;31671;48.092;11.842;2023-03-01T07:47:55;29.97;28.58;41.15;;
45964;Laerm;31671;48.092;11.842;2023-03-01T07:50:21;49.98;28.49;68.91;;
45964;Laerm;31671;48.092;11.842;2023-03-01T07:52:49;45.58;28.75;62.65;;
45964;Laerm;31671;48.092;11.842;2023-03-01T07:55:15;35.18;28.63;54.77;;
45964;Laerm;31671;48.092;11.842;2023-03-01T07:57:41;30.04;28.58;35.92;;
45964;Laerm;31671;48.092;11.842;2023-03-01T08:00:07;29.91;28.68;34.15;;
45964;Laerm;31671;48.092;11.842;2023-03-01T08:02:40;29.99;28.67;31.52;;
45964;Laerm;31671;48.092;11.842;2023-03-01T08:05:06;40.10;28.81;59.95;;
45964;Laerm;31671;48.092;11.842;2023-03-01T08:07:32;38.51;28.73;56.47;;
45964;Laerm;31671;48.092;11.842;2023-03-01T08:09:58;35.01;28.74;54.19;;
45964;Laerm;31671;48.092;11.842;2023-03-01T08:12:24;31.08;28.78;48.66;;
45964;Laerm;31671;48.092;11.842;2023-03-01T08:14:50;47.53;28.84;65.48;;
45964;Laerm;31671;48.092;11.842;2023-03-01T08:17:16;40.28;28.78;59.08;;
45964;Laerm;31671;48.092;11.842;2023-03-01T08:19:42;49.04;29.01;66.24;;
45964;Laerm;31671;48.092;11.842;2023-03-01T08:22:08;46.97;28.98;67.29;;
45964;Laerm;31671;48.092;11.842;2023-03-01T08:24:33;46.51;29.06;64.90;;
45964;Laerm;31671;48.092;11.842;2023-03-01T08:26:59;37.47;29.02;55.73;;
45964;Laerm;31671;48.092;11.842;2023-03-01T08:29:25;50.19;29.02;67.56;;
45964;Laerm;31671;48.092;11.842;2023-03-01T08:31:50;56.33;28.70;76.67;;
45964;Laerm;31671;48.092;11.842;2023-03-01T08:34:17;46.85;29.11;69.14;;
45964;Laerm;31671;48.092;11.842;2023-03-01T08:36:44;35.59;28.92;55.00;;
45964;Laerm;31671;48.092;11.842;2023-03-01T08:39:11;30.22;29.04;38.07;;
45964;Laerm;31671;48.092;11.842;2023-03-01T08:41:38;44.34;28.91;65.00;;
45964;Laerm;31671;48.092;11.842;2023-03-01T08:44:04;45.66;29.11;66.33;;
45964;Laerm;31671;48.092;11.842;2023-03-01T08:46:38;44.60;28.93;65.21;;
45964;Laerm;31671;48.092;11.842;2023-03-01T08:49:04;36.04;28.78;55.08;;
45964;Laerm;31671;48.092;11.842;2023-03-01T08:51:30;45.87;29.12;63.67;;
45964;Laerm;31671;48.092;11.842;2023-03-01T08:53:56;40.88;28.86;59.65;;
45964;Laerm;31671;48.092;11.842;2023-03-01T08:56:21;50.68;29.01;68.06;;
45964;Laerm;31671;48.092;11.842;2023-03-01T08:58:47;40.24;29.00;60.28;;
45964;Laerm;31671;48.092;11.842;2023-03-01T09:01:14;43.11;28.91;60.77;;
45964;Laerm;31671;48.092;11.842;2023-03-01T09:03:40;51.14;28.81;71.33;;
45964;Laerm;31671;48.092;11.842;2023-03-01T09:06:06;39.78;28.95;61.59;;
45964;Laerm;31671;48.092;11.842;2023-03-01T09:08:37;43.16;29.01;64.58;;
45964;Laerm;31671;48.092;11.842;2023-03-01T09:11:04;44.07;28.89;62.63;;
45964;Laerm;31671;48.092;11.842;2023-03-01T09:13:30;33.01;28.91;49.36;;
45964;Laerm;31671;48.092;11.842;2023-03-01T09:15:56;31.60;28.96;48.75;;
45964;Laerm;31671;48.092;11.842;2023-03-01T09:18:21;44.96;29.03;64.02;;
45964;Laerm;31671;48.092;11.842;2023-03-01T09:20:47;37.81;29.15;56.39;;
45964;Laerm;31671;48.092;11.842;2023-03-01T09:23:13;42.58;29.12;61.60;;
45964;Laerm;31671;48.092;11.842;2023-03-01T09:25:38;30.74;29.25;40.90;;
45964;Laerm;31671;48.092;11.842;2023-03-01T09:28:04;30.49;29.05;36.49;;
45964;Laerm;31671;48.092;11.842;2023-03-01T09:30:31;31.02;29.07;45.75;;
45964;Laerm;31671;48.092;11.842;2023-03-01T09:32:57;33.91;29.23;50.74;;
45964;Laerm;31671;48.092;11.842;2023-03-01T09:35:23;31.11;29.12;44.75;;
45964;Laerm;31671;48.092;11.842;2023-03-01T09:37:49;35.57;29.30;54.17;;
45964;Laerm;31671;48.092;11.842;2023-03-01T09:40:17;31.14;29.21;48.01;;
45964;Laerm;31671;48.092;11.842;2023-03-01T09:45:37;38.48;29.38;57.20;;
45964;Laerm;31671;48.092;11.842;2023-03-01T09:48:03;33.64;29.38;52.66;;
45964;Laerm;31671;48.092;11.842;2023-03-01T09:50:32;31.84;29.32;45.50;;
45964;Laerm;31671;48.092;11.842;2023-03-01T09:55:49;31.69;29.11;47.50;;
45964;Laerm;31671;48.092;11.842;2023-03-01T09:58:25;43.07;29.31;61.19;;
45964;Laerm;31671;48.092;11.842;2023-03-01T10:00:53;49.33;29.39;71.92;;
45964;Laerm;31671;48.092;11.842;2023-03-01T10:08:26;54.78;29.24;74.51;;
45964;Laerm;31671;48.092;11.842;2023-03-01T10:10:54;43.08;29.18;63.41;;
45964;Laerm;31671;48.092;11.842;2023-03-01T10:13:21;34.21;29.17;56.25;;
45964;Laerm;31671;48.092;11.842;2023-03-01T10:15:56;45.15;29.31;66.79;;
45964;Laerm;31671;48.092;11.842;2023-03-01T10:18:27;43.66;29.46;66.74;;
45964;Laerm;31671;48.092;11.842;2023-03-01T10:20:58;33.12;29.28;48.79;;
45964;Laerm;31671;48.092;11.842;2023-03-01T10:23:26;36.20;29.49;53.48;;
45964;Laerm;31671;48.092;11.842;2023-03-01T10:25:57;49.30;29.58;66.00;;
45964;Laerm;31671;48.092;11.842;2023-03-01T10:31:13;47.69;29.66;68.97;;
45964;Laerm;31671;48.092;11.842;2023-03-01T10:33:40;51.13;29.57;70.23;;
45964;Laerm;31671;48.092;11.842;2023-03-01T10:36:06;50.64;29.59;69.55;;
45964;Laerm;31671;48.092;11.842;2023-03-01T10:38:47;55.88;29.85;73.54;;
45964;Laerm;31671;48.092;11.842;2023-03-01T10:41:13;49.09;29.82;68.55;;
45964;Laerm;31671;48.092;11.842;2023-03-01T10:43:45;45.14;29.83;65.46;;
45964;Laerm;31671;48.092;11.842;2023-03-01T10:46:34;41.65;29.86;60.59;;
45964;Laerm;31671;48.092;11.842;2023-03-01T10:49:19;52.45;30.22;69.46;;
45964;Laerm;31671;48.092;11.842;2023-03-01T10:51:45;46.74;29.74;65.45;;
45964;Laerm;31671;48.092;11.842;2023-03-01T10:56:49;46.99;29.25;67.69;;
45964;Laerm;31671;48.092;11.842;2023-03-01T10:59:20;37.77;29.35;56.82;;
45964;Laerm;31671;48.092;11.842;2023-03-01T11:01:47;39.07;29.20;59.01;;
45964;Laerm;31671;48.092;11.842;2023-03-01T11:04:26;34.18;28.88;54.98;;
45964;Laerm;31671;48.092;11.842;2023-03-01T11:06:57;38.58;29.14;58.74;;
45964;Laerm;31671;48.092;11.842;2023-03-01T11:09:24;37.24;28.84;55.87;;
45964;Laerm;31671;48.092;11.842;2023-03-01T11:11:53;41.99;29.15;59.92;;
45964;Laerm;31671;48.092;11.842;2023-03-01T11:14:26;49.90;29.07;64.56;;
45964;Laerm;31671;48.092;11.842;2023-03-01T11:16:59;51.56;29.18;68.97;;
45964;Laerm;31671;48.092;11.842;2023-03-01T11:19:25;50.04;29.14;66.64;;
45964;Laerm;31671;48.092;11.842;2023-03-01T11:22:04;39.65;28.84;58.28;;
45964;Laerm;31671;48.092;11.842;2023-03-01T11:24:41;34.69;28.45;56.13;;
45964;Laerm;31671;48.092;11.842;2023-03-01T11:27:18;41.52;28.59;61.89;;
45964;Laerm;31671;48.092;11.842;2023-03-01T11:29:46;32.59;28.38;50.03;;
45964;Laerm;31671;48.092;11.842;2023-03-01T11:32:13;29.73;28.32;40.53;;
45964;Laerm;31671;48.092;11.842;2023-03-01T11:37:15;45.62;28.45;68.22;;
45964;Laerm;31671;48.092;11.842;2023-03-01T11:39:53;36.89;28.55;52.88;;
45964;Laerm;31671;48.092;11.842;2023-03-01T11:43:04;30.04;28.24;44.50;;
45964;Laerm;31671;48.092;11.842;2023-03-01T11:45:11;37.72;28.20;60.09;;
45964;Laerm;31671;48.092;11.842;2023-03-01T11:47:47;49.98;28.45;68.02;;
45964;Laerm;31671;48.092;11.842;2023-03-01T11:55:17;49.09;28.42;66.62;;
45964;Laerm;31671;48.092;11.842;2023-03-01T12:06:18;42.77;28.30;63.43;;
45964;Laerm;31671;48.092;11.842;2023-03-01T12:08:56;33.14;28.21;53.61;;
45964;Laerm;31671;48.092;11.842;2023-03-01T12:11:37;33.14;28.39;53.43;;
45964;Laerm;31671;48.092;11.842;2023-03-01T12:19:33;30.11;28.02;44.43;;
45964;Laerm;31671;48.092;11.842;2023-03-01T12:22:13;42.81;28.46;63.43;;
45964;Laerm;31671;48.092;11.842;2023-03-01T12:35:11;30.06;28.36;43.33;;
45964;Laerm;31671;48.092;11.842;2023-03-01T12:40:13;48.96;28.41;68.92;;
45964;Laerm;31671;48.092;11.842;2023-03-01T12:47:46;51.07;28.27;70.47;;
45964;Laerm;31671;48.092;11.842;2023-03-01T12:50:19;50.18;28.09;70.71;;
45964;Laerm;31671;48.092;11.842;2023-03-01T13:03:26;37.82;28.23;56.59;;
45964;Laerm;31671;48.092;11.842;2023-03-01T13:08:20;32.97;28.43;49.73;;
45964;Laerm;31671;48.092;11.842;2023-03-01T13:10:54;37.91;28.20;62.45;;
45964;Laerm;31671;48.092;11.842;2023-03-01T13:18:50;30.28;28.03;51.67;;
45964;Laerm;31671;48.092;11.842;2023-03-01T13:21:31;37.74;28.26;58.54;;
45964;Laerm;31671;48.092;11.842;2023-03-01T13:23:56;40.73;28.13;59.63;;
45964;Laerm;31671;48.092;11.842;2023-03-01T13:26:25;39.17;28.03;65.66;;
45964;Laerm;31671;48.092;11.842;2023-03-01T13:28:53;35.70;28.26;56.84;;
45964;Laerm;31671;48.092;11.842;2023-03-01T13:36:45;37.10;28.28;57.38;;
45964;Laerm;31671;48.092;11.842;2023-03-01T13:38:58;45.87;28.34;65.80;;
45964;Laerm;31671;48.092;11.842;2023-03-01T13:44:21;33.47;28.37;54.21;;
45964;Laerm;31671;48.092;11.842;2023-03-01T13:46:50;29.98;28.18;43.08;;
45964;Laerm;31671;48.092;11.842;2023-03-01T13:49:18;32.60;27.91;53.01;;
45964;Laerm;31671;48.092;11.842;2023-03-01T13:51:51;29.58;28.25;36.31;;
45964;Laerm;31671;48.092;11.842;2023-03-01T13:54:22;29.66;28.20;38.20;;
45964;Laerm;31671;48.092;11.842;2023-03-01T13:56:50;29.84;28.31;42.23;;
45964;Laerm;31671;48.092;11.842;2023-03-01T13:59:17;30.15;28.10;44.34;;
45964;Laerm;31671;48.092;11.842;2023-03-01T14:01:43;29.98;28.16;43.26;;
45964;Laerm;31671;48.092;11.842;2023-03-01T14:04:21;35.49;28.34;54.08;;
45964;Laerm;31671;48.092;11.842;2023-03-01T14:06:48;48.49;28.63;66.53;;
45964;Laerm;31671;48.092;11.842;2023-03-01T14:16:58;31.89;28.47;52.22;;
45964;Laerm;31671;48.092;11.842;2023-03-01T14:19:29;32.06;28.33;50.43;;
45964;Laerm;31671;48.092;11.842;2023-03-01T14:22:06;30.20;28.43;41.59;;
45964;Laerm;31671;48.092;11.842;2023-03-01T14:24:39;42.37;28.33;62.46;;
45964;Laerm;31671;48.092;11.842;2023-03-01T14:27:09;41.70;28.17;62.78;;
45964;Laerm;31671;48.092;11.842;2023-03-01T14:29:37;34.80;28.57;52.27;;
45964;Laerm;31671;48.092;11.842;2023-03-01T14:32:10;33.26;28.47;51.57;;
45964;Laerm;31671;48.092;11.842;2023-03-01T14:34:36;29.83;28.28;41.15;;
45964;Laerm;31671;48.092;11.842;2023-03-01T14:37:22;32.33;28.26;50.33;;
45964;Laerm;31671;48.092;11.842;2023-03-01T14:39:48;37.45;28.39;61.27;;
45964;Laerm;31671;48.092;11.842;2023-03-01T14:42:14;36.97;28.54;59.84;;
45964;Laerm;31671;48.092;11.842;2023-03-01T14:44:41;31.49;28.44;47.26;;
45964;Laerm;31671;48.092;11.842;2023-03-01T14:47:10;29.85;28.53;32.17;;
45964;Laerm;31671;48.092;11.842;2023-03-01T14:49:37;30.00;28.41;36.65;;
45964;Laerm;31671;48.092;11.842;2023-03-01T14:52:06;33.51;28.68;54.25;;
45964;Laerm;31671;48.092;11.842;2023-03-01T14:54:46;30.69;28.68;44.31;;
45964;Laerm;31671;48.092;11.842;2023-03-01T14:57:16;41.98;28.97;60.72;;
45964;Laerm;31671;48.092;11.842;2023-03-01T14:59:43;30.60;28.62;41.84;;
45964;Laerm;31671;48.092;11.842;2023-03-01T15:02:11;30.52;29.23;32.46;;
45964;Laerm;31671;48.092;11.842;2023-03-01T15:04:38;52.80;29.16;73.51;;
45964;Laerm;31671;48.092;11.842;2023-03-01T15:07:05;31.00;29.46;43.86;;
45964;Laerm;31671;48.092;11.842;2023-03-01T15:09:32;30.84;29.24;32.14;;